EGDY

RNAS Yeovilton Airport

Yeovil, United Kingdom
METAR EGDY 190750Z 23005KT 9999 FEW008 FEW020CB 06/05 Q1004 BLU NOSIG
Observed Flight Rules
Dec-19 @ 07:50 UTC (34 minutes ago) Visual Flight Rules
Wind Visibility Clouds
230° at 5 knots 10,000+ meters
  • Few at 800' AGL
  • Few at 2,000' AGL
Temperatures Readings
Current 6°C / 43°F
Dewpoint 5°C / 41°F
Humidity 93%
Altimeter 29.65" Hg
Pressure 1004 hPa
Elevation 23
METAR EGDY 190750Z 23005KT 9999 FEW008 FEW020CB 06/05 Q1004 BLU NOSIG
Observed Flight Rules
Dec-19 @ 07:50 UTC
(34 minutes ago)
VFR
Wind Visibility
230° at 5 knots 10,000+ meters
Clouds
  • Few at 800' AGL
  • Few at 2,000' AGL
Temperature Dewpoint
6°C / 43°F 5°C / 41°F
Humidity Altimeter Pressure
93% 29.65" Hg 1004 hPa